Time;durP1;ratioP1;P1;durP2;ratioP2;P2;SDS_P1;SDS_P2;PMS_P1;PMS_P2;Temp;Humidity;BMP_temperature;BMP_pressure;BME280_temperature;BME280_humidity;BME280_pressure;Samples;Min_cycle;Max_cycle;Signal;HPM_P1;HPM_P2
2023/03/17 00:00:43;;;;;;;12.65;3.47;;;;;;;0.49;85.29;101165.31;6211724;23;20397;-72
2023/03/17 00:03:18;;;;;;;8.40;3.00;;;;;;;0.50;86.19;101171.44;6212356;23;20116;-71
2023/03/17 00:05:45;;;;;;;8.73;2.80;;;;;;;0.54;86.49;101165.09;6211929;23;20102;-71
2023/03/17 00:08:21;;;;;;;11.18;3.47;;;;;;;0.47;87.00;101166.38;6188805;23;20362;-72
2023/03/17 00:10:49;;;;;;;9.63;3.72;;;;;;;0.51;87.04;101154.69;6197753;23;20031;-72
2023/03/17 00:13:16;;;;;;;8.20;2.92;;;;;;;0.53;87.47;101164.22;6211118;23;20023;-72
2023/03/17 00:15:45;;;;;;;9.95;3.72;;;;;;;0.53;87.93;101153.66;6212743;23;20027;-73
2023/03/17 00:18:16;;;;;;;10.52;3.55;;;;;;;0.42;88.64;101150.75;6210656;23;20044;-72
2023/03/17 00:20:44;;;;;;;9.55;3.70;;;;;;;0.44;89.32;101146.25;6208772;23;20099;-72
2023/03/17 00:23:15;;;;;;;9.60;3.60;;;;;;;0.41;89.85;101149.06;6211634;23;20326;-72
2023/03/17 00:25:44;;;;;;;8.60;3.47;;;;;;;0.39;90.46;101139.53;6205569;23;20088;-71
2023/03/17 00:28:22;;;;;;;12.65;3.72;;;;;;;0.41;90.64;101143.78;6212054;23;20042;-73
2023/03/17 00:30:53;;;;;;;12.73;3.90;;;;;;;0.27;91.87;101136.63;6211588;23;20025;-71
2023/03/17 00:33:24;;;;;;;;;;;;;;;0.37;91.79;101131.69;6211838;23;21103;-73
2023/03/17 00:35:51;;;;;;;11.80;4.00;;;;;;;0.43;91.13;101131.34;6211765;23;20297;-72
2023/03/17 00:38:20;;;;;;;12.07;3.58;;;;;;;0.36;91.91;101135.25;6212179;23;20012;-62
2023/03/17 00:40:47;;;;;;;12.57;3.40;;;;;;;0.22;93.07;101128.09;6210759;23;20021;-62
2023/03/17 00:43:14;;;;;;;15.60;3.72;;;;;;;0.18;93.83;101123.06;6209527;23;20529;-62
2023/03/17 00:45:41;;;;;;;11.77;4.38;;;;;;;0.16;93.33;101119.69;6203681;23;20027;-64
2023/03/17 00:48:17;;;;;;;16.13;4.30;;;;;;;0.28;92.70;101106.66;6210283;23;20025;-63
2023/03/17 00:50:45;;;;;;;11.43;4.57;;;;;;;0.23;93.42;101106.06;6210210;23;20016;-63
2023/03/17 00:53:14;;;;;;;13.85;4.32;;;;;;;0.23;93.03;101102.59;6211530;23;20056;-62
2023/03/17 00:55:42;;;;;;;12.30;3.72;;;;;;;0.22;93.28;101095.59;6210017;23;20020;-63
2023/03/17 00:58:13;;;;;;;11.85;4.68;;;;;;;0.31;92.94;101095.09;6206208;23;20136;-62
2023/03/17 01:00:40;;;;;;;10.43;3.97;;;;;;;0.28;93.20;101084.69;6211521;23;20052;-63
2023/03/17 01:03:10;;;;;;;10.88;3.55;;;;;;;0.12;93.92;101083.81;6175845;23;20450;-63
2023/03/17 01:05:38;;;;;;;13.40;4.05;;;;;;;0.27;93.79;101090.91;6206423;23;20389;-62
2023/03/17 01:08:05;;;;;;;10.63;4.35;;;;;;;0.05;93.76;101088.59;6210654;23;20035;-63
2023/03/17 01:10:31;;;;;;;15.10;5.35;;;;;;;0.07;95.27;101085.88;6210033;23;20023;-64
2023/03/17 01:12:58;;;;;;;12.35;4.28;;;;;;;0.13;94.89;101075.00;6210250;23;20021;-63
2023/03/17 01:15:30;;;;;;;10.95;4.28;;;;;;;0.18;94.74;101080.88;6209547;23;20095;-63
2023/03/17 01:17:58;;;;;;;12.60;4.25;;;;;;;0.24;94.50;101085.81;6211294;23;20519;-64
2023/03/17 01:20:28;;;;;;;11.88;5.03;;;;;;;0.29;93.16;101087.28;6209367;23;20096;-62
2023/03/17 01:22:55;;;;;;;17.42;4.10;;;;;;;0.14;93.69;101088.09;6172149;23;20092;-63
2023/03/17 01:25:22;;;;;;;14.02;4.45;;;;;;;0.02;94.52;101080.88;6208308;23;20047;-64
2023/03/17 01:27:49;;;;;;;16.73;4.72;;;;;;;0.11;94.62;101069.78;6209239;23;20030;-63
2023/03/17 01:30:19;;;;;;;11.43;4.25;;;;;;;-0.05;96.29;101067.16;6210589;23;20357;-71
2023/03/17 01:32:46;;;;;;;12.80;3.90;;;;;;;-0.03;96.40;101065.28;6210043;23;20071;-71
2023/03/17 01:35:13;;;;;;;16.50;4.75;;;;;;;0.02;96.81;101063.25;6210542;23;20031;-73
2023/03/17 01:37:40;;;;;;;13.95;5.07;;;;;;;-0.06;97.24;101046.97;6210409;23;20016;-73
2023/03/17 01:40:12;;;;;;;13.93;4.90;;;;;;;0.10;97.61;101046.16;6210508;23;20032;-72
2023/03/17 01:42:40;;;;;;;11.52;4.60;;;;;;;0.01;97.68;101052.75;6210587;23;20096;-72
2023/03/17 01:45:46;;;;;;;17.45;5.30;;;;;;;0.01;98.45;101050.97;6202329;23;20025;-70
2023/03/17 01:48:14;;;;;;;15.60;4.55;;;;;;;-0.02;98.88;101040.63;6208882;23;20020;-73
2023/03/17 01:50:41;;;;;;;15.50;5.05;;;;;;;0.02;99.51;101025.47;6210373;23;20032;-73
2023/03/17 01:53:08;;;;;;;15.13;5.00;;;;;;;0.10;99.41;101033.81;6210728;23;20016;-72
2023/03/17 01:55:35;;;;;;;16.52;5.15;;;;;;;0.03;100.00;101037.72;6208936;23;20024;-72
2023/03/17 01:58:02;;;;;;;14.95;4.85;;;;;;;-0.06;100.00;101030.31;6210933;23;20470;-69
2023/03/17 02:00:29;;;;;;;12.65;4.93;;;;;;;-0.11;100.00;101025.28;6211733;23;20325;-72
2023/03/17 02:02:56;;;;;;;10.85;4.80;;;;;;;0.02;100.00;101034.22;6211280;23;20047;-71
2023/03/17 02:09:09;;;;;;;17.60;4.72;;;;;;;-0.08;100.00;101030.41;6213004;23;20087;-71
2023/03/17 02:11:37;;;;;;;25.85;5.30;;;;;;;-0.13;100.00;101021.88;6210151;23;20024;-71
2023/03/17 02:14:03;;;;;;;12.18;5.20;;;;;;;-0.13;100.00;101013.13;6211047;23;20103;-72
2023/03/17 02:16:31;;;;;;;12.60;5.20;;;;;;;-0.09;100.00;101014.63;6210115;23;20028;-72
2023/03/17 02:18:58;;;;;;;10.32;4.40;;;;;;;-0.16;100.00;101010.63;6209779;23;20016;-72
2023/03/17 02:21:37;;;;;;;19.50;5.07;;;;;;;-0.17;100.00;101014.22;6212068;23;20028;-71
2023/03/17 02:24:51;;;;;;;12.23;4.82;;;;;;;-0.21;100.00;101022.28;6210780;23;20501;-72
2023/03/17 02:27:22;;;;;;;14.15;4.80;;;;;;;-0.29;100.00;101018.38;6143659;23;20021;-73
2023/03/17 02:29:49;;;;;;;16.20;5.82;;;;;;;-0.28;100.00;101014.81;6145074;23;20022;-72
2023/03/17 02:32:18;;;;;;;14.35;5.53;;;;;;;-0.26;100.00;101008.53;6151311;23;20040;-71
2023/03/17 02:34:46;;;;;;;16.70;5.43;;;;;;;-0.22;100.00;101006.56;6150331;23;20495;-72
2023/03/17 02:37:13;;;;;;;17.48;5.97;;;;;;;-0.20;100.00;100994.97;6150397;23;20109;-72
2023/03/17 02:39:40;;;;;;;16.27;5.75;;;;;;;-0.22;100.00;101003.94;6150875;23;20109;-73
2023/03/17 02:42:07;;;;;;;18.15;5.75;;;;;;;-0.09;100.00;100997.03;6151173;23;20026;-72
2023/03/17 02:44:34;;;;;;;13.77;5.63;;;;;;;-0.24;100.00;100998.72;6150732;23;20032;-71
2023/03/17 02:47:02;;;;;;;14.02;5.85;;;;;;;-0.24;100.00;100996.09;6151385;23;20025;-69
2023/03/17 02:49:30;;;;;;;17.02;5.10;;;;;;;-0.23;100.00;100991.66;6150834;23;20030;-72
2023/03/17 02:51:57;;;;;;;14.85;5.80;;;;;;;-0.34;100.00;100983.50;6149736;23;20495;-69
2023/03/17 02:54:23;;;;;;;14.18;5.93;;;;;;;-0.24;100.00;100987.34;6151321;23;20017;-72
2023/03/17 02:56:50;;;;;;;15.20;5.55;;;;;;;-0.31;100.00;100991.25;6149522;23;20025;-71
2023/03/17 02:59:16;;;;;;;20.15;5.85;;;;;;;-0.39;100.00;100996.09;6149739;23;20032;-69
2023/03/17 03:01:43;;;;;;;13.40;5.75;;;;;;;-0.43;100.00;100990.97;6151817;23;20025;-71
2023/03/17 03:04:10;;;;;;;17.52;6.00;;;;;;;-0.38;100.00;100990.72;6151235;23;20021;-73
2023/03/17 03:06:38;;;;;;;11.75;5.15;;;;;;;-0.35;100.00;100985.28;6151964;23;20025;-72
2023/03/17 03:09:05;;;;;;;13.82;5.57;;;;;;;-0.30;100.00;100979.75;6152258;23;20096;-70
2023/03/17 03:11:31;;;;;;;14.88;5.53;;;;;;;-0.36;100.00;100988.88;6152286;23;20052;-69
2023/03/17 03:13:58;;;;;;;17.67;5.50;;;;;;;-0.36;100.00;100999.41;6149042;23;20027;-71
2023/03/17 03:16:25;;;;;;;14.13;5.18;;;;;;;-0.33;100.00;101001.00;6153352;23;20026;-71
2023/03/17 03:18:51;;;;;;;10.10;5.25;;;;;;;-0.25;100.00;101001.47;6151685;23;20025;-72
2023/03/17 03:21:18;;;;;;;15.65;5.65;;;;;;;-0.32;100.00;101005.38;6151684;23;21191;-72
2023/03/17 03:23:45;;;;;;;13.32;5.63;;;;;;;-0.27;100.00;101011.22;6152790;23;20032;-71
2023/03/17 03:26:11;;;;;;;16.65;5.28;;;;;;;-0.31;100.00;101021.09;6198630;23;20023;-72
2023/03/17 03:28:38;;;;;;;15.30;5.80;;;;;;;-0.25;100.00;101009.38;6211625;23;20071;-73
2023/03/17 03:31:05;;;;;;;17.50;5.45;;;;;;;-0.32;100.00;101011.50;6207764;23;20074;-72
2023/03/17 03:33:32;;;;;;;14.40;5.45;;;;;;;-0.25;100.00;101012.84;6212483;23;20044;-72
2023/03/17 03:35:59;;;;;;;13.60;5.35;;;;;;;-0.22;100.00;101007.41;6212121;23;20067;-70
2023/03/17 03:38:26;;;;;;;12.90;5.72;;;;;;;-0.30;100.00;101006.13;6212414;23;20076;-72
2023/03/17 03:40:53;;;;;;;12.20;5.20;;;;;;;-0.27;100.00;101005.97;6208672;23;20096;-72
2023/03/17 03:43:20;;;;;;;12.30;4.95;;;;;;;-0.33;100.00;101001.00;6211645;23;20084;-71
2023/03/17 03:45:50;;;;;;;12.57;5.30;;;;;;;-0.43;100.00;101004.16;6198504;23;20025;-72
2023/03/17 03:48:17;;;;;;;12.48;5.22;;;;;;;-0.30;100.00;101008.75;6212253;23;20053;-71
2023/03/17 03:50:44;;;;;;;13.48;5.30;;;;;;;-0.37;100.00;101002.13;6211661;23;20103;-72
2023/03/17 03:53:10;;;;;;;16.42;5.82;;;;;;;-0.25;100.00;101006.72;6212483;23;20016;-72
2023/03/17 03:55:37;;;;;;;15.38;6.07;;;;;;;-0.43;100.00;101003.31;6207614;23;20018;-64
2023/03/17 03:58:03;;;;;;;16.85;6.00;;;;;;;-0.35;100.00;101006.38;6212480;23;20023;-64
2023/03/17 04:00:30;;;;;;;13.82;5.15;;;;;;;-0.42;100.00;101005.84;6211623;23;20023;-68
2023/03/17 04:02:59;;;;;;;14.82;5.80;;;;;;;-0.43;100.00;101005.94;6212367;23;20340;-64
2023/03/17 04:05:25;;;;;;;16.58;5.75;;;;;;;-0.29;100.00;101005.22;6212826;23;20029;-73
2023/03/17 04:07:52;;;;;;;17.98;6.30;;;;;;;-0.35;100.00;101002.91;6211330;23;20020;-72
2023/03/17 04:10:19;;;;;;;12.68;5.78;;;;;;;-0.38;100.00;101000.41;6211944;23;20460;-72
2023/03/17 04:12:45;;;;;;;14.93;5.53;;;;;;;-0.37;100.00;100996.84;6210689;23;20044;-72
2023/03/17 04:15:14;;;;;;;13.43;5.78;;;;;;;-0.38;100.00;100987.25;6211810;23;20048;-72
2023/03/17 04:17:42;;;;;;;12.60;5.50;;;;;;;-0.34;100.00;100994.03;6210335;23;20092;-72
2023/03/17 04:20:10;;;;;;;18.90;5.57;;;;;;;-0.29;100.00;100987.59;6212013;23;20027;-72
2023/03/17 04:22:37;;;;;;;12.30;5.75;;;;;;;-0.40;100.00;100986.47;6211955;23;20096;-72
2023/03/17 04:25:04;;;;;;;10.02;5.28;;;;;;;-0.39;100.00;100977.63;6211471;23;20021;-71
2023/03/17 04:27:31;;;;;;;13.35;5.68;;;;;;;-0.38;100.00;100968.78;6211424;23;20016;-69
2023/03/17 04:29:57;;;;;;;15.50;5.97;;;;;;;-0.39;100.00;100969.72;6210326;23;20087;-72
2023/03/17 04:32:24;;;;;;;14.10;5.68;;;;;;;-0.37;100.00;100970.47;6210968;23;20017;-70
2023/03/17 04:34:52;;;;;;;12.30;5.25;;;;;;;-0.39;100.00;100965.31;6211114;23;20024;-72
2023/03/17 04:37:19;;;;;;;13.40;5.38;;;;;;;-0.42;100.00;100968.94;6211395;23;20104;-72
2023/03/17 04:39:46;;;;;;;12.98;5.50;;;;;;;-0.40;100.00;100968.00;6211011;23;20449;-72
2023/03/17 04:42:12;;;;;;;18.95;5.65;;;;;;;-0.50;100.00;100975.59;6211620;23;20470;-72
2023/03/17 04:44:40;;;;;;;11.68;4.68;;;;;;;-0.54;100.00;100972.25;6211181;23;20035;-72
2023/03/17 04:47:06;;;;;;;13.70;5.90;;;;;;;-0.48;100.00;100968.44;6210604;23;20442;-72
2023/03/17 04:49:33;;;;;;;12.63;5.28;;;;;;;-0.55;100.00;100962.63;6209247;23;20096;-72
2023/03/17 04:52:00;;;;;;;21.27;5.55;;;;;;;-0.47;100.00;100965.72;6212274;23;20123;-72
2023/03/17 04:54:26;;;;;;;12.93;5.38;;;;;;;-0.46;100.00;100967.41;6211894;23;20021;-63
2023/03/17 04:56:53;;;;;;;17.23;5.90;;;;;;;-0.46;100.00;100962.16;6211272;23;20441;-64
2023/03/17 04:59:19;;;;;;;18.10;6.30;;;;;;;-0.42;100.00;100965.47;6210202;23;20028;-64
2023/03/17 05:01:46;;;;;;;12.02;5.55;;;;;;;-0.44;100.00;100960.25;6208191;23;20025;-62
2023/03/17 05:04:13;;;;;;;11.13;5.07;;;;;;;-0.54;100.00;100953.78;6212083;23;20016;-62
2023/03/17 05:06:57;;;;;;;11.18;4.88;;;;;;;-0.35;100.00;100958.09;6212268;23;20075;-62
2023/03/17 05:09:24;;;;;;;13.68;5.60;;;;;;;-0.24;100.00;100961.81;6207053;23;20454;-64
2023/03/17 05:11:51;;;;;;;15.70;6.03;;;;;;;-0.31;100.00;100955.19;6213763;23;20024;-65
2023/03/17 05:14:17;;;;;;;16.25;5.40;;;;;;;-0.34;99.69;100959.78;6211974;23;20040;-62
2023/03/17 05:16:46;;;;;;;10.77;5.43;;;;;;;-0.40;100.00;100955.69;6212012;23;20023;-62
2023/03/17 05:19:14;;;;;;;13.10;4.60;;;;;;;-0.41;100.00;100959.25;6212205;23;20020;-64
2023/03/17 05:21:41;;;;;;;15.65;5.72;;;;;;;-0.52;100.00;100962.47;6213147;23;20358;-62
2023/03/17 05:24:08;;;;;;;10.77;5.00;;;;;;;-0.50;100.00;100962.41;6213008;23;20025;-63
2023/03/17 05:26:35;;;;;;;13.50;5.25;;;;;;;-0.52;100.00;100965.13;6212044;23;20051;-65
2023/03/17 05:29:02;;;;;;;11.07;5.10;;;;;;;-0.53;100.00;100968.69;6209203;23;20069;-67
2023/03/17 05:31:29;;;;;;;17.80;5.57;;;;;;;-0.42;99.97;100955.78;6210396;23;20103;-63
2023/03/17 05:33:57;;;;;;;12.82;5.10;;;;;;;-0.39;97.96;100936.31;6204214;23;20103;-64
2023/03/17 05:36:23;;;;;;;11.85;5.03;;;;;;;-0.39;96.78;100954.75;6210372;23;20517;-64
2023/03/17 05:38:51;;;;;;;10.80;4.50;;;;;;;-0.50;96.92;100951.88;6211383;23;20095;-62
2023/03/17 05:41:17;;;;;;;11.70;4.75;;;;;;;-0.43;96.13;100959.34;6210940;23;20070;-63
2023/03/17 05:43:46;;;;;;;13.43;4.65;;;;;;;-0.28;95.16;100959.44;6211151;23;20358;-63
2023/03/17 05:46:13;;;;;;;14.00;4.68;;;;;;;-0.25;94.05;100956.66;6208403;23;20096;-65
2023/03/17 05:48:40;;;;;;;12.20;4.53;;;;;;;-0.38;93.90;100960.88;6209585;23;20017;-63
2023/03/17 05:51:07;;;;;;;12.50;5.40;;;;;;;-0.41;93.38;100972.44;6209364;23;20025;-64
2023/03/17 05:53:35;;;;;;;8.43;4.95;;;;;;;-0.21;91.19;100966.91;6210234;23;20025;-72
2023/03/17 05:56:02;;;;;;;11.27;4.50;;;;;;;-0.23;91.62;100960.03;6209745;23;20016;-67
2023/03/17 05:58:28;;;;;;;14.30;4.82;;;;;;;-0.30;90.94;100970.06;6212234;23;20024;-72
2023/03/17 06:00:55;;;;;;;11.40;4.65;;;;;;;-0.29;89.74;100978.84;6210547;23;20349;-71
2023/03/17 06:03:22;;;;;;;9.23;4.05;;;;;;;-0.33;89.54;100962.34;6210048;23;20028;-72
2023/03/17 06:05:49;;;;;;;12.07;4.30;;;;;;;-0.31;89.79;100951.69;6210018;23;20030;-72
2023/03/17 06:08:15;;;;;;;14.38;4.55;;;;;;;-0.26;88.50;100953.16;6210001;23;20024;-71
2023/03/17 06:10:42;;;;;;;11.85;4.50;;;;;;;-0.25;87.49;100954.00;6209784;23;20053;-72
2023/03/17 06:13:09;;;;;;;12.48;4.75;;;;;;;-0.23;87.95;100949.47;6209880;23;20378;-71
2023/03/17 06:15:36;;;;;;;17.08;4.70;;;;;;;-0.22;87.81;100949.41;6211040;23;20107;-72
2023/03/17 06:18:04;;;;;;;12.52;4.30;;;;;;;-0.32;87.23;100947.38;6209130;23;20027;-71
2023/03/17 06:20:32;;;;;;;14.80;4.43;;;;;;;-0.24;86.77;100967.09;6210744;23;20044;-72
2023/03/17 06:22:59;;;;;;;14.35;5.28;;;;;;;-0.19;86.08;100965.06;6211098;23;20338;-70
2023/03/17 06:25:31;;;;;;;23.15;4.47;;;;;;;-0.25;85.79;100959.28;6208913;23;20075;-72
2023/03/17 06:28:01;;;;;;;14.43;4.80;;;;;;;-0.22;85.44;100959.13;6210516;23;20016;-72
2023/03/17 06:30:29;;;;;;;13.05;4.60;;;;;;;-0.18;85.20;100950.09;6211140;23;20020;-72
2023/03/17 06:32:56;;;;;;;12.68;4.28;;;;;;;-0.16;85.07;100932.38;6209976;23;20024;-72
2023/03/17 06:35:23;;;;;;;12.00;4.85;;;;;;;-0.11;84.34;100940.06;6210208;23;20441;-71
2023/03/17 06:37:50;;;;;;;12.73;4.72;;;;;;;-0.09;83.94;100949.56;6210647;23;20020;-72
2023/03/17 06:40:17;;;;;;;11.90;4.13;;;;;;;-0.03;83.65;100948.38;6208990;23;20099;-72
2023/03/17 06:42:43;;;;;;;11.80;4.85;;;;;;;-0.01;83.24;100957.91;6210449;23;20119;-72
2023/03/17 06:45:10;;;;;;;10.82;4.07;;;;;;;-0.07;83.01;100950.34;6209443;23;20020;-71
2023/03/17 06:47:38;;;;;;;15.50;4.38;;;;;;;-0.01;82.55;100931.53;6209388;23;20095;-71
2023/03/17 06:50:08;;;;;;;12.18;5.03;;;;;;;0.12;82.06;100936.09;6209743;23;20078;-71
2023/03/17 06:52:35;;;;;;;10.70;4.28;;;;;;;0.17;81.78;100926.16;6209034;23;20078;-71
2023/03/17 06:55:03;;;;;;;12.40;4.53;;;;;;;0.09;80.69;100925.72;6211249;23;20017;-72
2023/03/17 06:57:30;;;;;;;16.48;4.43;;;;;;;0.17;80.51;100931.41;6209866;23;20407;-71
2023/03/17 06:59:57;;;;;;;12.82;4.65;;;;;;;0.21;80.40;100928.50;6209142;23;20020;-71
2023/03/17 07:02:23;;;;;;;8.60;4.28;;;;;;;0.43;79.83;100938.66;6210209;23;20107;-72
2023/03/17 07:04:50;;;;;;;17.02;4.75;;;;;;;0.31;79.17;100941.19;6195922;23;20024;-70
2023/03/17 07:07:19;;;;;;;12.98;5.07;;;;;;;0.37;78.95;100935.56;6209562;23;20116;-71
2023/03/17 07:09:46;;;;;;;11.25;5.32;;;;;;;0.40;78.01;100919.50;6209647;23;20024;-71
2023/03/17 07:12:13;;;;;;;10.90;5.00;;;;;;;0.22;77.83;100917.00;6201926;23;20043;-72
2023/03/17 07:14:40;;;;;;;11.02;4.50;;;;;;;0.41;77.05;100910.69;6209102;23;20454;-72
2023/03/17 07:17:11;;;;;;;10.65;4.57;;;;;;;0.51;75.93;100904.75;6193528;23;20476;-72
2023/03/17 07:19:38;;;;;;;13.30;4.10;;;;;;;0.40;75.96;100909.81;6209660;23;20056;-72
2023/03/17 07:22:04;;;;;;;15.10;4.35;;;;;;;0.56;74.81;100914.19;6209884;23;20096;-71
2023/03/17 07:24:31;;;;;;;9.75;4.28;;;;;;;0.87;72.89;100927.25;6211404;23;20030;-72
2023/03/17 07:26:58;;;;;;;13.30;4.22;;;;;;;1.11;71.60;100916.13;6210672;23;20024;-72
2023/03/17 07:29:25;;;;;;;11.65;4.45;;;;;;;1.25;69.25;100900.28;6209899;23;20021;-72
2023/03/17 07:31:52;;;;;;;15.68;5.07;;;;;;;1.96;66.67;100891.38;6210739;23;20021;-70
2023/03/17 07:34:19;;;;;;;11.18;4.28;;;;;;;1.59;66.78;100900.78;6209854;23;20103;-72
2023/03/17 07:36:46;;;;;;;7.60;4.38;;;;;;;1.41;67.28;100901.03;6183284;23;20028;-71
2023/03/17 07:39:12;;;;;;;15.35;4.15;;;;;;;1.59;66.59;100885.78;6209107;23;20505;-72
2023/03/17 07:41:40;;;;;;;13.80;5.25;;;;;;;1.58;65.79;100875.31;6183373;23;20349;-73
2023/03/17 07:44:08;;;;;;;14.15;4.85;;;;;;;1.29;65.50;100901.78;6208719;23;20024;-73
2023/03/17 07:46:35;;;;;;;16.80;3.90;;;;;;;1.17;66.67;100899.91;6209867;23;20027;-71
2023/03/17 07:49:02;;;;;;;10.07;4.75;;;;;;;1.27;66.90;100911.63;6209529;23;20016;-73
2023/03/17 07:51:28;;;;;;;11.63;3.95;;;;;;;1.34;66.35;100907.63;6204863;23;20103;-71
2023/03/17 07:54:02;;;;;;;12.32;4.53;;;;;;;1.63;65.81;100897.00;6211214;23;20398;-73
2023/03/17 07:56:30;;;;;;;9.82;4.35;;;;;;;1.96;64.19;100904.59;6179715;23;20098;-72
2023/03/17 07:58:57;;;;;;;13.80;4.15;;;;;;;2.15;62.73;100905.06;6179204;23;20044;-71
2023/03/17 08:01:25;;;;;;;16.58;4.78;;;;;;;2.38;62.19;100910.66;6197677;23;20020;-72
2023/03/17 08:03:53;;;;;;;12.25;3.40;;;;;;;2.67;61.45;100893.63;6183662;23;20477;-74
2023/03/17 08:06:20;;;;;;;12.05;5.25;;;;;;;2.85;60.05;100902.09;6211201;23;20039;-76
2023/03/17 08:08:47;;;;;;;14.30;4.90;;;;;;;2.95;59.61;100906.78;6210327;23;20024;-73
2023/03/17 08:11:14;;;;;;;12.43;4.43;;;;;;;3.59;56.95;100910.19;6199969;23;20024;-73
2023/03/17 08:13:41;;;;;;;11.18;4.75;;;;;;;3.37;57.48;100906.41;6211378;23;20012;-72
2023/03/17 08:16:07;;;;;;;10.93;5.05;;;;;;;2.20;58.31;100912.72;6210563;23;20352;-74
2023/03/17 08:18:35;;;;;;;12.90;4.47;;;;;;;2.68;57.98;100902.41;6211092;23;20016;-73
2023/03/17 08:21:02;;;;;;;11.68;3.78;;;;;;;2.74;58.38;100896.69;6212752;23;20021;-73
2023/03/17 08:23:29;;;;;;;12.05;5.00;;;;;;;2.35;59.07;100887.03;6212283;23;20016;-73
2023/03/17 08:25:57;;;;;;;9.90;3.90;;;;;;;2.81;58.80;100875.94;6211988;23;20031;-72
2023/03/17 08:28:24;;;;;;;11.65;4.28;;;;;;;2.99;57.40;100884.41;6210637;23;20415;-64
2023/03/17 08:30:50;;;;;;;11.93;4.72;;;;;;;3.20;57.16;100879.38;6211239;23;20540;-65
2023/03/17 08:33:17;;;;;;;20.05;5.80;;;;;;;3.67;55.80;100878.63;6211668;23;20024;-67
2023/03/17 08:35:43;;;;;;;10.35;4.55;;;;;;;3.43;55.55;100888.38;6210772;23;20028;-66
2023/03/17 08:38:11;;;;;;;12.45;5.05;;;;;;;3.42;56.08;100894.63;6212979;23;20020;-67
2023/03/17 08:40:38;;;;;;;11.52;4.60;;;;;;;3.13;56.33;100892.22;6210670;23;20017;-66
2023/03/17 08:43:06;;;;;;;12.43;4.25;;;;;;;3.26;56.46;100881.63;6211264;23;20100;-67
2023/03/17 08:45:33;;;;;;;13.52;3.97;;;;;;;3.29;56.79;100876.09;6211234;23;20079;-66
2023/03/17 08:48:03;;;;;;;14.52;4.75;;;;;;;3.25;57.13;100858.72;6213090;23;20313;-67
2023/03/17 08:50:30;;;;;;;13.88;4.57;;;;;;;3.33;56.22;100845.75;6211097;23;20563;-66
2023/03/17 08:52:57;;;;;;;12.63;4.82;;;;;;;3.53;55.85;100846.97;6209760;23;20021;-67
2023/03/17 08:55:24;;;;;;;12.80;4.35;;;;;;;3.42;55.61;100846.91;6210524;23;20025;-67
2023/03/17 08:57:51;;;;;;;12.48;4.85;;;;;;;3.04;55.45;100850.50;6209625;23;20409;-68
2023/03/17 09:00:19;;;;;;;9.27;4.15;;;;;;;3.32;56.31;100846.72;6210305;23;20026;-66
2023/03/17 09:02:47;;;;;;;15.57;4.90;;;;;;;3.07;55.69;100845.81;6210332;23;20450;-66
2023/03/17 09:05:16;;;;;;;10.07;4.28;;;;;;;3.28;55.10;100834.63;6210107;23;20048;-66
2023/03/17 09:07:42;;;;;;;10.07;4.22;;;;;;;3.65;54.58;100835.44;6211236;23;20055;-66
2023/03/17 09:10:11;;;;;;;10.30;3.67;;;;;;;3.77;54.39;100833.72;6210608;23;20012;-66
2023/03/17 09:12:38;;;;;;;14.13;4.07;;;;;;;3.86;53.62;100830.34;6208727;23;20027;-66
2023/03/17 09:15:06;;;;;;;15.00;4.40;;;;;;;3.76;53.91;100826.69;6210495;23;20446;-68
2023/03/17 09:17:33;;;;;;;15.52;4.43;;;;;;;3.91;53.53;100838.00;6208923;23;20456;-66
2023/03/17 09:20:02;;;;;;;13.95;4.63;;;;;;;3.85;52.83;100834.81;6211086;23;20020;-66
2023/03/17 09:22:29;;;;;;;11.05;3.83;;;;;;;4.31;52.05;100833.16;6210981;23;20023;-67
2023/03/17 09:24:57;;;;;;;11.65;3.92;;;;;;;4.54;51.47;100832.28;6209182;23;20513;-66
2023/03/17 09:27:25;;;;;;;9.25;3.92;;;;;;;4.46;51.29;100820.56;6179460;23;20148;-67
2023/03/17 09:29:51;;;;;;;12.88;4.05;;;;;;;4.62;51.67;100821.06;6209795;23;20021;-67
2023/03/17 09:32:18;;;;;;;9.43;4.30;;;;;;;4.89;50.40;100831.34;6209637;23;20021;-67
2023/03/17 09:34:46;;;;;;;12.23;4.13;;;;;;;5.69;49.16;100823.09;6209410;23;20024;-66
2023/03/17 09:37:16;;;;;;;;;;;;;;;5.54;48.47;100819.06;6209373;23;20030;-67
2023/03/17 09:39:43;;;;;;;15.38;3.75;;;;;;;5.38;48.19;100831.91;6208733;23;20332;-66
2023/03/17 09:42:40;;;;;;;9.65;4.40;;;;;;;5.46;48.39;100827.66;6210012;23;20020;-66
2023/03/17 09:45:35;;;;;;;10.50;4.70;;;;;;;6.71;46.37;100812.81;6208937;23;20028;-67
2023/03/17 09:48:16;;;;;;;11.35;4.32;;;;;;;6.16;46.40;100818.31;6208502;23;20381;-67
2023/03/17 09:50:50;;;;;;;14.55;4.10;;;;;;;6.71;44.80;100816.31;6210581;23;20016;-66
2023/03/17 09:53:21;;;;;;;15.05;3.88;;;;;;;7.50;44.02;100814.72;6211445;23;20100;-67
2023/03/17 09:55:53;;;;;;;11.48;4.00;;;;;;;6.90;45.39;100817.38;6206905;23;20536;-66
2023/03/17 09:58:28;;;;;;;12.50;4.00;;;;;;;7.04;44.95;100814.34;6210621;23;20028;-67
2023/03/17 10:00:55;;;;;;;14.13;4.25;;;;;;;7.95;44.18;100801.75;6210967;23;20025;-67
2023/03/17 10:03:23;;;;;;;9.90;3.85;;;;;;;7.57;43.77;100792.72;6211392;23;20083;-65
2023/03/17 10:05:50;;;;;;;5.82;3.50;;;;;;;7.26;44.76;100793.78;6211246;23;20441;-66
2023/03/17 10:08:30;;;;;;;13.38;4.10;;;;;;;7.78;44.00;100791.75;6211756;23;20040;-67
2023/03/17 10:11:00;;;;;;;11.48;4.80;;;;;;;7.63;44.16;100800.13;6205419;23;20044;-66
2023/03/17 10:13:42;;;;;;;12.90;4.53;;;;;;;8.65;42.67;100793.47;6210216;23;20112;-66
2023/03/17 10:16:17;;;;;;;9.30;4.03;;;;;;;8.10;40.69;100803.00;6210351;23;20023;-66
2023/03/17 10:18:47;;;;;;;11.05;3.65;;;;;;;8.41;40.65;100799.28;6209171;23;20046;-65
2023/03/17 10:21:46;;;;;;;7.18;3.40;;;;;;;8.19;40.88;100792.41;6209796;23;20020;-73
2023/03/17 10:24:13;;;;;;;13.68;3.50;;;;;;;7.87;42.43;100789.06;6209522;23;20036;-74
2023/03/17 10:26:49;;;;;;;9.50;3.95;;;;;;;7.84;43.22;100800.03;6209860;23;20055;-74
2023/03/17 10:29:21;;;;;;;12.02;3.55;;;;;;;7.58;43.88;100793.53;6208939;23;20024;-75
2023/03/17 10:31:52;;;;;;;11.70;3.40;;;;;;;7.63;43.07;100785.94;6208731;23;20027;-75
2023/03/17 10:34:31;;;;;;;14.10;3.72;;;;;;;7.25;44.14;100792.91;6209539;23;20029;-73
2023/03/17 10:37:04;;;;;;;10.68;4.00;;;;;;;7.21;44.34;100796.00;6210091;23;20028;-74
2023/03/17 10:39:31;;;;;;;8.75;4.20;;;;;;;7.76;43.98;100788.34;6208187;23;20020;-73
2023/03/17 10:42:08;;;;;;;14.25;3.88;;;;;;;8.28;43.04;100783.56;6209716;23;20027;-73
2023/03/17 10:44:47;;;;;;;12.02;3.10;;;;;;;8.37;42.64;100780.03;6209519;23;20036;-74
2023/03/17 10:47:43;;;;;;;12.13;3.90;;;;;;;8.59;42.30;100766.28;6210220;23;20032;-74
2023/03/17 10:50:18;;;;;;;12.07;4.30;;;;;;;7.85;42.66;100761.69;6208674;23;20024;-74
2023/03/17 10:52:51;;;;;;;6.00;3.53;;;;;;;7.65;42.84;100763.47;6209941;23;20052;-74
2023/03/17 10:55:21;;;;;;;15.13;4.82;;;;;;;8.39;42.75;100764.66;6209332;23;20017;-74
2023/03/17 10:58:00;;;;;;;11.55;4.10;;;;;;;7.83;42.87;100755.59;6209557;23;20103;-74
2023/03/17 11:00:33;;;;;;;11.57;4.15;;;;;;;8.51;42.26;100760.84;6168499;23;20096;-74
2023/03/17 11:03:28;;;;;;;8.15;3.88;;;;;;;8.49;41.76;100756.63;6209437;23;20446;-74
2023/03/17 11:06:01;;;;;;;16.02;3.65;;;;;;;8.28;42.81;100752.31;6182173;23;20401;-73
2023/03/17 11:08:34;;;;;;;7.57;3.55;;;;;;;7.69;43.62;100750.69;6208260;23;20017;-74
2023/03/17 11:11:06;;;;;;;17.55;3.60;;;;;;;8.47;42.63;100748.75;6168045;23;20437;-72
2023/03/17 11:13:32;;;;;;;10.63;3.45;;;;;;;8.65;42.36;100751.50;6210066;23;20466;-74
2023/03/17 11:16:22;;;;;;;11.10;3.58;;;;;;;8.79;41.83;100743.00;6183009;23;20335;-73
2023/03/17 11:18:53;;;;;;;11.43;3.60;;;;;;;8.87;41.94;100744.91;6209023;23;20457;-74
2023/03/17 11:21:30;;;;;;;7.47;3.70;;;;;;;9.15;41.14;100736.88;6207775;23;20024;-74
2023/03/17 11:24:08;;;;;;;8.80;3.50;;;;;;;9.06;41.09;100744.84;6210344;23;20021;-73
2023/03/17 11:26:53;;;;;;;9.75;3.88;;;;;;;8.92;41.21;100734.63;6208035;23;20103;-74
2023/03/17 11:29:34;;;;;;;5.95;3.33;;;;;;;8.99;40.97;100735.72;6211562;23;20044;-74
2023/03/17 11:32:22;;;;;;;9.48;3.30;;;;;;;9.32;40.97;100725.38;6212855;23;20095;-74
2023/03/17 11:35:17;;;;;;;9.77;3.30;;;;;;;8.85;41.30;100729.03;6210493;23;20023;-74